Time;durP1;ratioP1;P1;durP2;ratioP2;P2;SDS_P1;SDS_P2;PMS_P1;PMS_P2;Temp;Humidity;BMP_temperature;BMP_pressure;BME280_temperature;BME280_humidity;BME280_pressure;Samples;Min_cycle;Max_cycle;Signal;HPM_P1;HPM_P2
2021/08/24 00:00:28;;;;;;;3.75;2.00;;;17.70;99.90;;;;;;5011404;28;20165;-81
2021/08/24 00:02:56;;;;;;;2.35;2.13;;;17.60;99.90;;;;;;5012907;28;20215;-80
2021/08/24 00:05:25;;;;;;;5.78;2.13;;;17.50;99.90;;;;;;5013227;28;20161;-80
2021/08/24 00:07:56;;;;;;;3.05;2.63;;;17.50;99.90;;;;;;5014764;28;20192;-80
2021/08/24 00:10:22;;;;;;;3.22;2.42;;;17.50;99.90;;;;;;5017520;28;20621;-80
2021/08/24 00:12:47;;;;;;;2.50;2.30;;;17.60;99.90;;;;;;5016664;28;20208;-81
2021/08/24 00:15:13;;;;;;;2.67;2.40;;;17.60;99.90;;;;;;5017471;28;20565;-81
2021/08/24 00:17:39;;;;;;;4.45;2.58;;;17.60;99.90;;;;;;5016118;28;20184;-82
2021/08/24 00:20:07;;;;;;;2.22;2.08;;;17.50;99.90;;;;;;5017436;28;20570;-81
2021/08/24 00:22:35;;;;;;;4.75;2.58;;;17.70;99.90;;;;;;5016595;28;20231;-81
2021/08/24 00:25:01;;;;;;;10.77;3.22;;;17.60;99.90;;;;;;5016303;28;20200;-82
2021/08/24 00:27:27;;;;;;;3.28;2.70;;;17.70;99.90;;;;;;5017621;28;20244;-81
2021/08/24 00:29:52;;;;;;;2.88;2.38;;;17.50;99.90;;;;;;5017014;28;20196;-81
2021/08/24 00:32:18;;;;;;;5.00;3.10;;;17.40;99.90;;;;;;5016512;28;20660;-80
2021/08/24 00:34:44;;;;;;;4.22;3.03;;;17.40;99.90;;;;;;5017100;28;20182;-80
2021/08/24 00:37:09;;;;;;;3.08;2.72;;;17.50;99.90;;;;;;5017043;28;20653;-80
2021/08/24 00:39:35;;;;;;;3.55;2.38;;;17.40;99.90;;;;;;5017027;28;20198;-80
2021/08/24 00:42:01;;;;;;;4.30;3.00;;;17.10;99.90;;;;;;5015497;28;20175;-80
2021/08/24 00:44:26;;;;;;;3.40;3.10;;;17.20;99.90;;;;;;5014606;28;20521;-80
2021/08/24 00:46:54;;;;;;;4.10;3.10;;;17.20;99.90;;;;;;5015881;28;20188;-80
2021/08/24 00:49:25;;;;;;;3.38;3.08;;;17.30;99.90;;;;;;5015078;28;20164;-82
2021/08/24 00:51:59;;;;;;;3.40;2.83;;;17.20;99.90;;;;;;5015071;28;20247;-80
2021/08/24 00:54:26;;;;;;;3.58;3.28;;;17.00;99.90;;;;;;5015089;28;20647;-80
2021/08/24 00:57:03;;;;;;;3.25;2.92;;;16.90;99.90;;;;;;5014981;28;20193;-81
2021/08/24 00:59:30;;;;;;;3.35;2.92;;;16.80;99.90;;;;;;5014122;28;20176;-80
2021/08/24 01:01:56;;;;;;;3.90;3.40;;;16.90;99.90;;;;;;5014232;28;20652;-81
2021/08/24 01:04:26;;;;;;;6.03;3.03;;;16.90;99.90;;;;;;5014973;28;20173;-84
2021/08/24 01:07:16;;;;;;;7.45;3.75;;;17.00;99.90;;;;;;5013459;28;20557;-81
2021/08/24 01:10:03;;;;;;;3.50;3.20;;;16.90;99.90;;;;;;5015410;28;20169;-80
2021/08/24 01:13:08;;;;;;;4.88;3.28;;;17.10;99.90;;;;;;5019622;28;20200;-80
2021/08/24 01:15:54;;;;;;;7.65;3.67;;;17.10;99.90;;;;;;5021236;28;20169;-80
2021/08/24 01:18:50;;;;;;;3.42;2.83;;;17.00;99.90;;;;;;5022913;28;20168;-79
2021/08/24 01:21:29;;;;;;;4.32;3.30;;;17.00;99.90;;;;;;5014861;28;20238;-80
2021/08/24 01:24:01;;;;;;;4.22;3.45;;;17.00;99.90;;;;;;5015438;28;20164;-80
2021/08/24 01:27:07;;;;;;;9.18;4.30;;;16.90;99.90;;;;;;5014139;28;20188;-82
2021/08/24 01:30:02;;;;;;;3.70;3.40;;;17.00;99.90;;;;;;5013363;28;20188;-81
2021/08/24 01:32:47;;;;;;;5.65;3.50;;;16.90;99.90;;;;;;5009876;28;20220;-79
2021/08/24 01:35:25;;;;;;;4.18;3.60;;;17.00;99.90;;;;;;5012842;28;20204;-78
2021/08/24 01:38:24;;;;;;;8.05;3.90;;;17.10;99.90;;;;;;5012538;28;20270;-79
2021/08/24 01:41:07;;;;;;;4.35;3.88;;;17.00;99.90;;;;;;5014180;28;20173;-78
2021/08/24 01:44:03;;;;;;;3.90;3.60;;;17.00;99.90;;;;;;5014293;28;20199;-79
2021/08/24 01:47:07;;;;;;;4.63;4.07;;;16.90;99.90;;;;;;5013577;28;20525;-82
2021/08/24 01:49:44;;;;;;;9.02;4.28;;;16.80;99.90;;;;;;4957245;28;20264;-84
2021/08/24 01:52:14;;;;;;;5.70;4.18;;;16.80;99.90;;;;;;5009400;28;20216;-80
2021/08/24 01:54:58;;;;;;;6.50;4.32;;;16.90;99.90;;;;;;5012639;28;20164;-82
2021/08/24 01:57:32;;;;;;;6.68;4.53;;;16.80;99.90;;;;;;5013964;28;20557;-80
2021/08/24 02:00:10;;;;;;;7.78;4.70;;;16.70;99.90;;;;;;5012710;28;20223;-81
2021/08/24 02:02:41;;;;;;;4.93;4.45;;;16.80;99.90;;;;;;5014006;28;20274;-81
2021/08/24 02:05:16;;;;;;;6.78;4.88;;;16.50;99.90;;;;;;5014326;28;20161;-80
2021/08/24 02:07:44;;;;;;;11.48;4.28;;;16.40;99.90;;;;;;5014849;28;20188;-81
2021/08/24 02:10:21;;;;;;;8.82;5.13;;;16.50;99.90;;;;;;5014595;28;20223;-82
2021/08/24 02:12:50;;;;;;;14.82;4.30;;;16.50;99.90;;;;;;5014133;28;20219;-79
2021/08/24 02:15:18;;;;;;;4.88;4.38;;;16.40;99.90;;;;;;5014126;28;20173;-80
2021/08/24 02:17:46;;;;;;;10.30;4.80;;;16.30;99.90;;;;;;5014546;28;20220;-89
2021/08/24 02:20:30;;;;;;;4.95;4.45;;;16.20;99.90;;;;;;5013346;28;20255;-81
2021/08/24 02:23:00;;;;;;;4.88;4.07;;;16.40;99.90;;;;;;5013424;28;20183;-80
2021/08/24 02:25:35;;;;;;;5.43;4.93;;;16.40;99.90;;;;;;5012300;28;20279;-80
2021/08/24 02:28:13;;;;;;;5.57;5.07;;;16.50;99.90;;;;;;5012184;28;20245;-80
2021/08/24 02:30:46;;;;;;;5.30;4.82;;;16.40;99.90;;;;;;5013319;28;20247;-82
2021/08/24 02:33:13;;;;;;;5.72;5.22;;;16.40;99.90;;;;;;5012145;28;20254;-90
2021/08/24 02:35:59;;;;;;;5.32;4.82;;;16.30;99.90;;;;;;5013492;28;20260;-80
2021/08/24 02:38:28;;;;;;;5.53;5.05;;;16.40;99.90;;;;;;5012026;28;20188;-90
2021/08/24 02:41:16;;;;;;;9.63;5.07;;;16.30;99.90;;;;;;5012109;28;20644;-79
2021/08/24 02:44:00;;;;;;;14.95;5.85;;;16.40;99.90;;;;;;5011847;28;20268;-80
2021/08/24 02:46:35;;;;;;;7.55;5.30;;;16.30;99.90;;;;;;5011994;28;20197;-80
2021/08/24 02:49:09;;;;;;;10.23;5.28;;;16.40;99.90;;;;;;5013083;28;20163;-79
2021/08/24 02:51:35;;;;;;;7.10;5.38;;;16.20;99.90;;;;;;5013386;28;20563;-87
2021/08/24 02:54:04;;;;;;;4.95;4.55;;;16.10;99.90;;;;;;5012885;28;20262;-79
2021/08/24 02:56:30;;;;;;;6.07;4.93;;;15.90;99.90;;;;;;5011905;28;20216;-88
2021/08/24 02:58:56;;;;;;;5.90;5.40;;;15.90;99.90;;;;;;5013382;28;20199;-80
2021/08/24 03:01:21;;;;;;;7.45;5.22;;;16.00;99.90;;;;;;5012848;28;20164;-81
2021/08/24 03:03:47;;;;;;;6.13;5.43;;;16.10;99.90;;;;;;5013057;28;20226;-81
2021/08/24 03:06:13;;;;;;;6.30;5.07;;;16.00;99.90;;;;;;5013138;28;20192;-84
2021/08/24 03:08:39;;;;;;;5.30;4.90;;;16.10;99.90;;;;;;5012659;28;20601;-87
2021/08/24 03:11:05;;;;;;;6.35;5.75;;;16.10;99.90;;;;;;5011928;28;20180;-89
2021/08/24 03:13:43;;;;;;;5.30;4.80;;;15.90;99.90;;;;;;5012270;28;20204;-80
2021/08/24 03:16:23;;;;;;;6.43;5.30;;;16.00;99.90;;;;;;5011583;28;20267;-80
2021/08/24 03:18:53;;;;;;;7.00;5.15;;;16.10;99.90;;;;;;5013225;28;20169;-87
2021/08/24 03:21:23;;;;;;;5.95;5.30;;;16.10;99.90;;;;;;5012895;28;20187;-80
2021/08/24 03:23:50;;;;;;;6.10;5.25;;;16.00;99.90;;;;;;5015000;28;20172;-81
2021/08/24 03:26:22;;;;;;;9.82;5.50;;;16.00;99.90;;;;;;5014533;28;20192;-81
2021/08/24 03:28:48;;;;;;;7.03;5.70;;;15.70;99.90;;;;;;5013499;28;20181;-80
2021/08/24 03:31:16;;;;;;;8.10;5.88;;;15.60;99.90;;;;;;5016024;28;20165;-81
2021/08/24 03:33:42;;;;;;;7.38;5.05;;;15.90;99.90;;;;;;5016289;28;20683;-80
2021/08/24 03:36:08;;;;;;;5.45;4.95;;;15.60;99.90;;;;;;5015756;28;20219;-88
2021/08/24 03:38:34;;;;;;;7.57;5.78;;;15.80;99.90;;;;;;5013644;28;20176;-86
2021/08/24 03:41:07;;;;;;;6.25;5.10;;;15.80;99.90;;;;;;5015797;28;20165;-80
2021/08/24 03:43:33;;;;;;;5.70;5.20;;;16.00;99.90;;;;;;5015582;28;20177;-80
2021/08/24 03:45:59;;;;;;;8.00;5.25;;;15.90;99.90;;;;;;5019348;28;20259;-81
2021/08/24 03:48:24;;;;;;;17.55;5.03;;;15.80;99.90;;;;;;5019540;28;20212;-81
2021/08/24 03:50:50;;;;;;;12.23;5.53;;;15.70;99.90;;;;;;5019343;28;20172;-80
2021/08/24 03:53:15;;;;;;;11.18;5.40;;;15.60;99.90;;;;;;5020650;28;20576;-82
2021/08/24 03:55:41;;;;;;;9.57;5.93;;;15.70;99.90;;;;;;5023322;28;20621;-81
2021/08/24 03:58:07;;;;;;;6.30;5.30;;;15.60;99.90;;;;;;5031372;28;20208;-81
2021/08/24 04:00:33;;;;;;;5.15;4.70;;;15.70;99.90;;;;;;5028807;28;20172;-80
2021/08/24 04:02:59;;;;;;;6.05;5.07;;;15.50;99.90;;;;;;5026335;28;20656;-89
2021/08/24 04:05:24;;;;;;;5.53;4.57;;;15.40;99.90;;;;;;5025155;28;20160;-80
2021/08/24 04:07:50;;;;;;;4.90;4.50;;;15.40;99.90;;;;;;5016518;28;20195;-80
2021/08/24 04:10:15;;;;;;;5.95;5.45;;;15.40;99.90;;;;;;5015356;28;20164;-80
2021/08/24 04:12:41;;;;;;;5.68;5.07;;;15.60;99.90;;;;;;5016324;28;20208;-80
2021/08/24 04:15:09;;;;;;;7.85;4.70;;;15.70;99.90;;;;;;5015360;28;20506;-85
2021/08/24 04:17:37;;;;;;;5.43;4.93;;;15.70;99.90;;;;;;5014457;28;20200;-88
2021/08/24 04:20:15;;;;;;;5.20;4.70;;;15.90;99.90;;;;;;5016701;28;20165;-80
2021/08/24 04:22:44;;;;;;;5.32;4.68;;;15.80;99.90;;;;;;5014919;28;20182;-81
2021/08/24 04:25:12;;;;;;;12.63;5.28;;;15.80;99.90;;;;;;5015756;28;20211;-80
2021/08/24 04:27:37;;;;;;;7.28;5.15;;;15.80;99.90;;;;;;5014819;28;20196;-80
2021/08/24 04:30:04;;;;;;;5.25;4.75;;;15.70;99.90;;;;;;5019259;28;20160;-84
2021/08/24 04:32:31;;;;;;;6.63;4.78;;;15.80;99.90;;;;;;5016079;28;20204;-81
2021/08/24 04:34:57;;;;;;;5.03;4.63;;;15.70;99.90;;;;;;5016030;28;20169;-81
2021/08/24 04:37:23;;;;;;;4.85;4.45;;;15.50;99.90;;;;;;5016716;28;20267;-80
2021/08/24 04:39:49;;;;;;;9.38;4.72;;;15.50;99.90;;;;;;5019651;28;20184;-81
2021/08/24 04:42:15;;;;;;;6.30;4.50;;;15.50;99.90;;;;;;5018596;28;20659;-89
2021/08/24 04:44:41;;;;;;;5.65;4.40;;;15.60;99.90;;;;;;5016926;28;20172;-80
2021/08/24 04:47:07;;;;;;;8.90;4.57;;;15.50;99.90;;;;;;5016798;28;20180;-80
2021/08/24 04:49:33;;;;;;;5.43;4.35;;;15.50;99.90;;;;;;5018697;28;20260;-80
2021/08/24 04:51:59;;;;;;;11.18;4.80;;;15.50;99.90;;;;;;5018805;28;20160;-80
2021/08/24 04:54:25;;;;;;;6.68;5.10;;;15.50;99.90;;;;;;5017011;28;20176;-80
2021/08/24 04:56:51;;;;;;;5.28;4.80;;;15.30;99.90;;;;;;5019299;28;20204;-88
2021/08/24 04:59:16;;;;;;;7.53;4.03;;;15.20;99.90;;;;;;5018737;28;20650;-82
2021/08/24 05:01:42;;;;;;;7.03;5.03;;;15.20;99.90;;;;;;5018215;28;20152;-80
2021/08/24 05:04:08;;;;;;;5.88;4.38;;;15.30;99.90;;;;;;5018636;28;20177;-81
2021/08/24 05:06:34;;;;;;;6.82;5.18;;;15.30;99.90;;;;;;5016894;28;20556;-80
2021/08/24 05:09:00;;;;;;;5.10;4.60;;;15.20;99.90;;;;;;5016139;28;20171;-79
2021/08/24 05:11:26;;;;;;;7.93;4.85;;;15.20;99.90;;;;;;5019674;28;20275;-80
2021/08/24 05:13:52;;;;;;;5.50;5.00;;;15.30;99.90;;;;;;5018049;28;20309;-88
2021/08/24 05:16:17;;;;;;;8.93;5.93;;;15.50;99.90;;;;;;5014960;28;20200;-88
2021/08/24 05:18:43;;;;;;;26.67;5.57;;;15.70;99.90;;;;;;5014776;28;20172;-90
2021/08/24 05:21:13;;;;;;;41.88;8.20;;;15.70;99.90;;;;;;5014733;28;20184;-80
2021/08/24 05:23:40;;;;;;;10.15;4.70;;;15.70;99.90;;;;;;5013103;28;20259;-80
2021/08/24 05:26:11;;;;;;;11.45;5.55;;;15.60;99.90;;;;;;5014458;28;20510;-80
2021/08/24 05:28:37;;;;;;;10.15;5.45;;;15.60;99.90;;;;;;5014518;28;20219;-79
2021/08/24 05:31:03;;;;;;;5.65;5.13;;;15.40;99.90;;;;;;5014461;28;20161;-81
2021/08/24 05:33:31;;;;;;;10.43;5.53;;;15.50;99.90;;;;;;5013934;28;20231;-80
2021/08/24 05:35:57;;;;;;;15.68;5.45;;;15.30;99.90;;;;;;5014339;28;20179;-89
2021/08/24 05:38:22;;;;;;;15.63;6.13;;;15.30;99.90;;;;;;5013513;28;20687;-80
2021/08/24 05:40:48;;;;;;;10.48;6.00;;;15.40;99.90;;;;;;5014616;28;20165;-80
2021/08/24 05:43:14;;;;;;;13.68;5.88;;;15.60;99.90;;;;;;5013206;28;20236;-79
2021/08/24 05:45:39;;;;;;;17.42;6.00;;;15.60;99.90;;;;;;5012820;28;20647;-79
2021/08/24 05:48:05;;;;;;;9.25;5.53;;;15.70;99.90;;;;;;5014229;28;20192;-80
2021/08/24 05:50:30;;;;;;;12.07;5.30;;;15.80;99.90;;;;;;5014363;28;20248;-81
2021/08/24 05:52:56;;;;;;;29.35;5.88;;;15.80;99.90;;;;;;5013812;28;20203;-80
2021/08/24 05:55:22;;;;;;;7.68;5.90;;;15.80;99.90;;;;;;5012417;28;20160;-79
2021/08/24 05:57:47;;;;;;;9.25;5.20;;;15.70;99.90;;;;;;5014332;28;20207;-80
2021/08/24 06:00:13;;;;;;;19.40;5.72;;;15.80;99.90;;;;;;5012783;28;20255;-81
2021/08/24 06:02:39;;;;;;;40.83;7.85;;;15.90;99.90;;;;;;5014384;28;20268;-80
2021/08/24 06:05:07;;;;;;;6.43;5.07;;;16.10;99.90;;;;;;5012320;28;20176;-82
2021/08/24 06:07:32;;;;;;;72.97;8.23;;;16.10;99.90;;;;;;5011743;28;20604;-81
2021/08/24 06:09:59;;;;;;;5.60;5.07;;;16.00;99.90;;;;;;5013606;28;20161;-80
2021/08/24 06:12:25;;;;;;;7.30;4.85;;;16.10;99.90;;;;;;5013890;28;20204;-80
2021/08/24 06:14:51;;;;;;;7.63;5.05;;;16.10;99.90;;;;;;5013644;28;20281;-80
2021/08/24 06:17:17;;;;;;;6.07;4.53;;;16.10;99.90;;;;;;5013717;28;20195;-81
2021/08/24 06:19:43;;;;;;;6.20;5.20;;;15.80;99.90;;;;;;5012192;28;20509;-78
2021/08/24 06:22:08;;;;;;;9.77;5.10;;;15.60;99.90;;;;;;5012998;28;20196;-77
2021/08/24 06:24:36;;;;;;;6.10;4.40;;;15.50;99.90;;;;;;5013208;28;20173;-78
2021/08/24 06:27:02;;;;;;;10.23;4.95;;;15.50;99.90;;;;;;5012995;28;20177;-78
2021/08/24 06:29:28;;;;;;;5.43;4.93;;;15.50;99.90;;;;;;5013292;28;20251;-78
2021/08/24 06:31:56;;;;;;;12.93;5.03;;;15.60;99.90;;;;;;5013217;28;20196;-78
2021/08/24 06:34:22;;;;;;;6.20;5.10;;;15.70;99.90;;;;;;5013632;28;20181;-78
2021/08/24 06:36:49;;;;;;;5.22;4.82;;;15.80;99.90;;;;;;5012343;28;20218;-79
2021/08/24 06:39:15;;;;;;;5.57;4.97;;;15.80;99.90;;;;;;5013025;28;20226;-79
2021/08/24 06:41:41;;;;;;;6.22;4.53;;;15.90;99.90;;;;;;5011485;28;20172;-78
2021/08/24 06:44:08;;;;;;;5.18;4.68;;;16.00;99.90;;;;;;5013974;28;20540;-78
2021/08/24 06:46:35;;;;;;;7.20;4.68;;;16.20;99.90;;;;;;5014229;28;20191;-79
2021/08/24 06:49:00;;;;;;;6.10;5.00;;;16.30;99.90;;;;;;5012099;28;20255;-79
2021/08/24 06:51:27;;;;;;;12.15;4.47;;;16.40;99.90;;;;;;5014358;28;20196;-78
2021/08/24 06:53:53;;;;;;;4.32;3.90;;;16.40;99.90;;;;;;5018127;28;20536;-79
2021/08/24 06:56:18;;;;;;;5.18;4.60;;;16.50;99.90;;;;;;5023983;28;20181;-79
2021/08/24 06:58:46;;;;;;;8.10;4.30;;;16.60;99.90;;;;;;5025861;28;20171;-80
2021/08/24 07:01:21;;;;;;;6.93;4.13;;;16.70;99.90;;;;;;5028388;28;20533;-78
2021/08/24 07:03:48;;;;;;;10.73;4.20;;;16.90;99.90;;;;;;5013220;28;20156;-78
2021/08/24 07:06:14;;;;;;;7.28;3.60;;;16.90;99.90;;;;;;5017608;28;20199;-83
2021/08/24 07:08:40;;;;;;;4.65;4.15;;;16.80;99.90;;;;;;5015644;28;20215;-83
2021/08/24 07:11:06;;;;;;;7.85;4.88;;;16.80;99.90;;;;;;5019775;28;20180;-83
2021/08/24 07:13:33;;;;;;;7.20;4.00;;;16.70;99.90;;;;;;5017843;28;20204;-82
2021/08/24 07:15:59;;;;;;;12.50;5.18;;;16.70;99.90;;;;;;5007217;28;20226;-81
2021/08/24 07:18:25;;;;;;;7.22;5.72;;;16.80;99.90;;;;;;5018155;28;20168;-83
2021/08/24 07:20:53;;;;;;;8.65;4.93;;;16.70;99.90;;;;;;5019268;28;20647;-82
2021/08/24 07:23:18;;;;;;;4.07;3.67;;;16.60;99.90;;;;;;5019642;28;20168;-87
2021/08/24 07:25:45;;;;;;;6.05;3.70;;;16.70;99.90;;;;;;5015125;28;20243;-81
2021/08/24 07:28:11;;;;;;;11.63;5.38;;;16.90;99.90;;;;;;5016454;28;20231;-81
2021/08/24 07:30:44;;;;;;;18.75;4.65;;;17.00;99.90;;;;;;5017180;28;20173;-81
2021/08/24 07:33:10;;;;;;;17.95;5.28;;;17.20;99.90;;;;;;5016279;28;20212;-81
2021/08/24 07:35:35;;;;;;;10.48;4.55;;;17.30;99.90;;;;;;5016012;28;20703;-81
2021/08/24 07:38:01;;;;;;;32.97;7.13;;;17.30;99.90;;;;;;5015899;28;20300;-79
2021/08/24 07:40:28;;;;;;;5.95;4.63;;;17.30;99.90;;;;;;5015514;28;20260;-81
2021/08/24 07:42:54;;;;;;;8.02;4.18;;;17.30;99.90;;;;;;5018563;28;20595;-80
2021/08/24 07:45:20;;;;;;;4.97;4.20;;;17.10;99.90;;;;;;5015946;28;20251;-82
2021/08/24 07:47:46;;;;;;;11.63;3.88;;;17.20;99.90;;;;;;5015460;28;20246;-80
2021/08/24 07:50:12;;;;;;;12.38;4.57;;;17.30;99.90;;;;;;5018048;28;20252;-80
2021/08/24 07:52:38;;;;;;;5.35;3.58;;;17.30;99.90;;;;;;5016593;28;20204;-82
2021/08/24 07:55:05;;;;;;;5.85;4.07;;;17.50;99.90;;;;;;5017279;28;20242;-82
2021/08/24 07:57:31;;;;;;;7.88;4.05;;;17.80;99.90;;;;;;5015156;28;20688;-82
2021/08/24 07:59:56;;;;;;;5.22;4.18;;;17.80;99.90;;;;;;5015705;28;20176;-81
2021/08/24 08:02:22;;;;;;;7.93;4.57;;;18.00;99.90;;;;;;5018054;28;20177;-80
2021/08/24 08:04:48;;;;;;;15.32;4.82;;;18.20;99.90;;;;;;5019548;28;20207;-80
2021/08/24 08:07:14;;;;;;;7.53;4.35;;;18.20;99.90;;;;;;5021811;28;20185;-81
2021/08/24 08:09:40;;;;;;;17.08;4.28;;;18.20;99.90;;;;;;5020000;28;20180;-82
2021/08/24 08:12:06;;;;;;;17.35;4.35;;;18.30;99.90;;;;;;5020763;28;20165;-81
2021/08/24 08:14:32;;;;;;;9.20;3.80;;;18.50;99.90;;;;;;5017105;28;20180;-85
2021/08/24 08:16:58;;;;;;;8.98;3.95;;;18.70;99.90;;;;;;5018160;28;20282;-83
2021/08/24 08:19:24;;;;;;;4.63;3.83;;;18.70;99.90;;;;;;5019758;28;20184;-83
2021/08/24 08:21:49;;;;;;;8.60;4.20;;;18.80;99.90;;;;;;5017312;28;20191;-81
2021/08/24 08:24:15;;;;;;;7.85;4.50;;;18.90;99.90;;;;;;5015293;28;20579;-83
2021/08/24 08:26:41;;;;;;;4.18;3.25;;;18.90;99.90;;;;;;5017653;28;20324;-82
2021/08/24 08:29:11;;;;;;;9.05;3.83;;;18.90;99.90;;;;;;5018049;28;20830;-83
2021/08/24 08:31:43;;;;;;;9.13;3.78;;;18.90;99.90;;;;;;5018643;28;20527;-83
2021/08/24 08:34:10;;;;;;;5.07;3.45;;;19.00;99.90;;;;;;5016434;28;20208;-81
2021/08/24 08:36:36;;;;;;;9.32;3.65;;;19.20;99.90;;;;;;5016306;28;20196;-82
2021/08/24 08:39:02;;;;;;;30.90;4.38;;;19.30;99.90;;;;;;5015857;28;20251;-82
2021/08/24 08:41:38;;;;;;;4.93;3.10;;;19.40;99.90;;;;;;5015696;28;20658;-81
2021/08/24 08:44:24;;;;;;;8.15;2.88;;;19.40;99.90;;;;;;5017483;28;20187;-82
2021/08/24 08:47:00;;;;;;;6.72;3.38;;;19.30;99.90;;;;;;5016281;28;20220;-82
2021/08/24 08:49:51;;;;;;;7.38;2.90;;;19.50;99.90;;;;;;5016611;28;20247;-81
2021/08/24 08:52:51;;;;;;;6.68;3.00;;;19.70;99.90;;;;;;5015170;28;20216;-86
2021/08/24 08:55:26;;;;;;;7.80;3.15;;;19.80;99.90;;;;;;5015699;28;20231;-81
2021/08/24 08:58:15;;;;;;;14.07;3.20;;;19.90;99.90;;;;;;5015578;28;20188;-81
2021/08/24 09:00:49;;;;;;;3.50;2.30;;;20.20;99.90;;;;;;5015711;28;20247;-81
2021/08/24 09:03:31;;;;;;;11.02;3.33;;;20.10;99.90;;;;;;5015306;28;20230;-81
2021/08/24 09:05:58;;;;;;;4.32;2.72;;;20.00;99.90;;;;;;5015506;28;20278;-81
2021/08/24 09:08:25;;;;;;;7.72;2.28;;;20.30;99.90;;;;;;5014818;28;20632;-81
2021/08/24 09:10:54;;;;;;;4.82;2.40;;;20.40;99.90;;;;;;5015707;28;20629;-82
2021/08/24 09:13:44;;;;;;;2.90;2.25;;;20.40;99.90;;;;;;5016263;28;20280;-82
2021/08/24 09:16:17;;;;;;;3.42;1.98;;;20.50;99.90;;;;;;5016013;28;20173;-82
2021/08/24 09:18:52;;;;;;;5.63;4.68;;;20.50;99.90;;;;;;5013982;28;20187;-80
2021/08/24 09:21:28;;;;;;;4.45;2.65;;;20.70;99.90;;;;;;5016638;28;20180;-82
2021/08/24 09:23:56;;;;;;;5.68;2.70;;;20.70;99.90;;;;;;5016766;28;20172;-88
2021/08/24 09:26:53;;;;;;;8.93;2.00;;;20.70;99.90;;;;;;5015712;28;20188;-82
2021/08/24 09:29:25;;;;;;;5.65;1.80;;;20.60;99.90;;;;;;5016512;28;20624;-81
2021/08/24 09:31:52;;;;;;;3.22;2.15;;;20.70;99.90;;;;;;5015932;28;20236;-80
2021/08/24 09:34:23;;;;;;;10.82;2.40;;;20.90;99.90;;;;;;5015942;28;20212;-80
2021/08/24 09:36:49;;;;;;;1.75;1.65;;;21.10;99.90;;;;;;5021538;28;20196;-81
2021/08/24 09:39:14;;;;;;;2.85;1.77;;;21.10;99.90;;;;;;5031469;28;20157;-81
2021/08/24 09:41:41;;;;;;;2.72;2.10;;;21.20;99.90;;;;;;5030210;28;20579;-81
2021/08/24 09:44:27;;;;;;;1.88;1.67;;;21.00;99.90;;;;;;5016367;28;20177;-81
2021/08/24 09:47:03;;;;;;;10.27;2.00;;;21.10;99.90;;;;;;5014976;28;20196;-81
2021/08/24 09:49:41;;;;;;;11.32;1.90;;;21.30;99.90;;;;;;5013785;28;20168;-81
2021/08/24 09:52:12;;;;;;;22.10;2.85;;;21.40;99.90;;;;;;5013246;28;20183;-82
2021/08/24 09:54:52;;;;;;;1.95;1.67;;;21.40;99.90;;;;;;5015688;28;20175;-83
2021/08/24 09:57:27;;;;;;;7.20;1.85;;;21.40;99.90;;;;;;5014873;28;20184;-81
2021/08/24 09:59:55;;;;;;;2.38;1.70;;;21.40;99.90;;;;;;5015382;28;20192;-83
2021/08/24 10:02:27;;;;;;;2.42;1.42;;;21.50;99.90;;;;;;5013990;28;20177;-80
2021/08/24 10:04:54;;;;;;;5.35;1.42;;;21.50;99.90;;;;;;5014789;28;20171;-81
2021/08/24 10:07:35;;;;;;;3.10;1.40;;;21.60;99.90;;;;;;5013374;28;20275;-82
2021/08/24 10:10:02;;;;;;;2.00;1.80;;;21.60;99.90;;;;;;5015168;28;20584;-82
2021/08/24 10:12:34;;;;;;;3.42;1.65;;;21.50;99.90;;;;;;5014615;28;20227;-84
2021/08/24 10:15:29;;;;;;;1.83;1.40;;;21.60;99.90;;;;;;5013654;28;20302;-84
2021/08/24 10:18:08;;;;;;;7.78;1.55;;;21.50;99.90;;;;;;5014625;28;20180;-83
2021/08/24 10:21:03;;;;;;;3.83;1.30;;;21.70;99.90;;;;;;5013828;28;20187;-90
2021/08/24 10:23:37;;;;;;;2.35;2.08;;;21.50;99.90;;;;;;4991601;28;20185;-89
2021/08/24 10:26:06;;;;;;;6.47;1.50;;;21.50;99.90;;;;;;5016439;28;20260;-84
2021/08/24 10:28:51;;;;;;;1.90;1.48;;;21.50;99.90;;;;;;5017899;28;20161;-82
2021/08/24 10:31:33;;;;;;;1.40;1.30;;;21.60;99.90;;;;;;5021263;28;20196;-83
2021/08/24 10:34:08;;;;;;;6.22;1.60;;;21.60;99.90;;;;;;5030075;28;20259;-82
2021/08/24 10:36:46;;;;;;;1.70;1.60;;;21.60;99.90;;;;;;5033575;28;20222;-84
2021/08/24 10:39:21;;;;;;;6.68;1.83;;;21.60;99.90;;;;;;5023049;28;20183;-84
2021/08/24 10:42:07;;;;;;;11.32;1.92;;;21.60;99.90;;;;;;5020140;28;20176;-81
2021/08/24 10:44:50;;;;;;;5.38;2.15;;;21.60;99.90;;;;;;5017837;28;20173;-87
2021/08/24 10:47:23;;;;;;;3.53;1.60;;;21.60;99.90;;;;;;5018826;28;20191;-82
2021/08/24 10:49:50;;;;;;;6.05;1.63;;;21.80;99.90;;;;;;5016563;28;20168;-81
2021/08/24 10:52:19;;;;;;;2.35;1.50;;;21.80;99.90;;;;;;5016137;28;20294;-81
2021/08/24 10:54:53;;;;;;;3.42;2.10;;;21.90;99.90;;;;;;5015415;28;20184;-80
2021/08/24 10:57:27;;;;;;;2.00;1.40;;;21.80;99.90;;;;;;5013901;28;20190;-80
2021/08/24 11:00:11;;;;;;;7.15;1.35;;;21.80;99.90;;;;;;5015276;28;20180;-83
2021/08/24 11:03:15;;;;;;;9.27;1.70;;;21.70;99.90;;;;;;5018077;28;20199;-85
2021/08/24 11:05:55;;;;;;;6.43;1.52;;;21.80;99.90;;;;;;5026134;28;20239;-85
2021/08/24 11:08:46;;;;;;;2.22;1.52;;;22.00;99.90;;;;;;5020676;28;20168;-86
2021/08/24 11:11:30;;;;;;;26.90;2.97;;;22.00;99.90;;;;;;5021706;28;20184;-87
2021/08/24 11:14:06;;;;;;;2.88;1.90;;;21.90;99.90;;;;;;5018154;28;20226;-86
2021/08/24 11:16:32;;;;;;;3.88;1.80;;;21.70;99.90;;;;;;5018974;28;20617;-86
2021/08/24 11:19:17;;;;;;;1.98;1.48;;;21.70;99.90;;;;;;5017167;28;20180;-85
2021/08/24 11:21:51;;;;;;;2.20;1.50;;;21.70;99.90;;;;;;5017805;28;20180;-83
2021/08/24 11:24:48;;;;;;;1.40;1.00;;;21.90;99.90;;;;;;5016796;28;20656;-83
2021/08/24 11:27:22;;;;;;;4.28;1.30;;;22.00;99.90;;;;;;5016429;28;20208;-82
2021/08/24 11:29:53;;;;;;;4.80;1.52;;;22.10;99.90;;;;;;5018123;28;20174;-83
2021/08/24 11:32:24;;;;;;;2.55;1.35;;;22.40;99.90;;;;;;5016590;28;20656;-83
2021/08/24 11:35:05;;;;;;;4.15;1.17;;;22.60;99.90;;;;;;5015088;28;20207;-86
2021/08/24 11:37:48;;;;;;;2.58;1.25;;;22.80;99.90;;;;;;5015247;28;20242;-84
2021/08/24 11:40:21;;;;;;;5.40;1.17;;;22.70;99.90;;;;;;5017110;28;20211;-86
2021/08/24 11:42:51;;;;;;;1.73;1.30;;;22.20;99.90;;;;;;5017160;28;20181;-85
2021/08/24 11:45:36;;;;;;;3.50;1.45;;;22.30;99.90;;;;;;5014819;28;20176;-84
2021/08/24 11:48:06;;;;;;;3.72;1.85;;;22.30;99.90;;;;;;5014467;28;20218;-85
2021/08/24 11:51:10;;;;;;;6.57;1.40;;;22.20;99.90;;;;;;5017474;28;20216;-84
2021/08/24 11:53:40;;;;;;;2.30;1.23;;;22.30;99.90;;;;;;5016411;28;20718;-84
2021/08/24 11:56:07;;;;;;;2.05;1.42;;;22.40;99.90;;;;;;5017158;28;20175;-88
2021/08/24 11:58:49;;;;;;;2.28;1.40;;;22.50;99.90;;;;;;5017098;28;20652;-82
2021/08/24 12:01:24;;;;;;;3.47;1.60;;;22.40;99.90;;;;;;5019860;28;20176;-83
2021/08/24 12:03:57;;;;;;;5.20;1.20;;;22.30;99.90;;;;;;5008821;28;20180;-85
2021/08/24 12:06:37;;;;;;;4.18;1.95;;;22.20;99.90;;;;;;5024767;28;20192;-84
2021/08/24 12:09:05;;;;;;;1.65;1.15;;;22.20;99.90;;;;;;5024806;28;20164;-91
2021/08/24 12:11:50;;;;;;;3.25;1.77;;;22.20;99.90;;;;;;5025380;28;20164;-84
2021/08/24 12:14:22;;;;;;;1.67;1.15;;;22.40;99.90;;;;;;5022020;28;20208;-84
2021/08/24 12:17:28;;;;;;;1.50;1.20;;;22.60;99.90;;;;;;5022818;28;20215;-85
2021/08/24 12:20:04;;;;;;;2.00;1.30;;;22.50;99.90;;;;;;5011047;28;20184;-83
2021/08/24 12:22:40;;;;;;;6.72;1.52;;;22.50;99.90;;;;;;5020647;28;20252;-82
2021/08/24 12:25:32;;;;;;;5.13;1.20;;;22.40;99.90;;;;;;5021289;28;20168;-90
2021/08/24 12:28:28;;;;;;;3.50;1.48;;;22.40;99.90;;;;;;5022321;28;20238;-82
2021/08/24 12:30:59;;;;;;;6.22;1.63;;;22.50;99.90;;;;;;5024291;28;20204;-82
2021/08/24 12:33:44;;;;;;;8.07;1.83;;;22.80;99.90;;;;;;5026304;28;20212;-83
2021/08/24 12:36:22;;;;;;;2.00;1.50;;;23.00;99.90;;;;;;5029589;28;20175;-86
2021/08/24 12:38:51;;;;;;;2.97;1.77;;;22.90;99.90;;;;;;5024133;28;20248;-83
2021/08/24 12:41:42;;;;;;;5.28;1.83;;;23.00;99.90;;;;;;5022990;28;20580;-84
2021/08/24 12:44:14;;;;;;;3.20;1.40;;;23.00;99.90;;;;;;5016821;28;20220;-83
2021/08/24 12:46:40;;;;;;;6.03;1.60;;;23.00;99.90;;;;;;5022618;28;20255;-83
2021/08/24 12:49:20;;;;;;;1.63;1.17;;;22.90;99.90;;;;;;5022328;28;20169;-82
2021/08/24 12:52:17;;;;;;;7.38;1.30;;;22.70;99.90;;;;;;5021326;28;20176;-84
2021/08/24 12:54:49;;;;;;;2.13;1.25;;;22.80;99.90;;;;;;4990382;28;20206;-83
2021/08/24 12:57:27;;;;;;;4.53;1.38;;;22.90;99.90;;;;;;5022798;28;20192;-84
2021/08/24 12:59:56;;;;;;;5.28;1.52;;;22.90;99.90;;;;;;5023188;28;20263;-83
2021/08/24 13:02:24;;;;;;;7.47;2.13;;;23.00;99.90;;;;;;5025210;28;20188;-84
2021/08/24 13:05:00;;;;;;;10.93;1.67;;;23.10;99.90;;;;;;5031991;28;20175;-85
2021/08/24 13:08:00;;;;;;;1.52;1.27;;;23.10;99.90;;;;;;5031187;28;20214;-84
2021/08/24 13:10:52;;;;;;;4.50;1.73;;;23.20;99.90;;;;;;5031023;28;20241;-88